createdAt,value
2023-05-08T00:00:10.425Z,1653.00
2023-05-08T00:01:10.127Z,1632.00
2023-05-08T00:02:10.182Z,1643.00
2023-05-08T00:03:10.360Z,1679.00
2023-05-08T00:04:10.457Z,1666.00
2023-05-08T00:05:10.303Z,1625.00
2023-05-08T00:06:10.336Z,1629.00
2023-05-08T00:07:10.367Z,1625.00
2023-05-08T00:08:10.405Z,1659.00
2023-05-08T00:09:10.468Z,1652.00
2023-05-08T00:10:10.576Z,1656.00
2023-05-08T00:11:10.545Z,1675.00
2023-05-08T00:12:10.564Z,1675.00
2023-05-08T00:13:10.658Z,1655.00
2023-05-08T00:14:10.654Z,1647.00
2023-05-08T00:15:10.708Z,1652.00
2023-05-08T00:16:10.763Z,1651.00
2023-05-08T00:17:10.784Z,1653.00
2023-05-08T00:18:10.834Z,1646.00
2023-05-08T00:19:10.877Z,1620.00
2023-05-08T00:20:11.168Z,1618.00
2023-05-08T00:21:10.939Z,1622.00
2023-05-08T00:22:10.961Z,1598.00
2023-05-08T00:23:10.980Z,1563.00
2023-05-08T00:24:11.053Z,1575.00
2023-05-08T00:25:11.064Z,1577.00
2023-05-08T00:26:11.120Z,1608.00
2023-05-08T00:27:11.129Z,1567.00
2023-05-08T00:28:11.197Z,1588.00
2023-05-08T00:29:11.226Z,1617.00
2023-05-08T00:30:11.522Z,1624.00
2023-05-08T00:31:11.248Z,1618.00
2023-05-08T00:32:11.334Z,1650.00
2023-05-08T00:33:11.456Z,1624.00
2023-05-08T00:34:11.359Z,1643.00
2023-05-08T00:35:11.409Z,1618.00
2023-05-08T00:36:11.463Z,1586.00
2023-05-08T00:37:11.513Z,1583.00
2023-05-08T00:38:11.552Z,1598.00
2023-05-08T00:39:11.581Z,1596.00
2023-05-08T00:40:11.956Z,1622.00
2023-05-08T00:41:11.676Z,1623.00
2023-05-08T00:42:11.708Z,1627.00
2023-05-08T00:43:11.749Z,1646.00
2023-05-08T00:44:11.799Z,1657.00
2023-05-08T00:45:11.846Z,1658.00
2023-05-08T00:46:11.894Z,1667.00
2023-05-08T00:47:11.906Z,1646.00
2023-05-08T00:48:11.909Z,1647.00
2023-05-08T00:49:11.906Z,1640.00
2023-05-08T00:50:12.217Z,1653.00
2023-05-08T00:51:11.950Z,1683.00
2023-05-08T00:52:11.977Z,1671.00
2023-05-08T00:53:12.037Z,1652.00
2023-05-08T00:54:12.113Z,1693.00
2023-05-08T00:55:12.135Z,1699.00
2023-05-08T00:56:12.190Z,1705.00
2023-05-08T00:57:12.149Z,1710.00
2023-05-08T00:58:12.181Z,1718.00
2023-05-08T00:59:12.218Z,1686.00
2023-05-08T01:00:12.532Z,1697.00
2023-05-08T01:01:12.404Z,1692.00
2023-05-08T01:02:12.387Z,1684.00
2023-05-08T01:03:12.513Z,1691.00
2023-05-08T01:04:12.454Z,1718.00
2023-05-08T01:05:12.488Z,1697.00
2023-05-08T01:06:12.589Z,1724.00
2023-05-08T01:07:12.616Z,1744.00
2023-05-08T01:08:12.671Z,1756.00
2023-05-08T01:09:12.712Z,1748.00
2023-05-08T01:10:12.989Z,1737.00
2023-05-08T01:11:12.800Z,1716.00
2023-05-08T01:12:12.830Z,1757.00
2023-05-08T01:13:12.886Z,1727.00
2023-05-08T01:14:12.841Z,1747.00
2023-05-08T01:15:12.908Z,1756.00
2023-05-08T01:16:12.921Z,1761.00
2023-05-08T01:17:12.909Z,1772.00
2023-05-08T01:18:12.980Z,1766.00
2023-05-08T01:19:13.033Z,1774.00
2023-05-08T01:20:13.242Z,1799.00
2023-05-08T01:21:13.136Z,1806.00
2023-05-08T01:22:13.179Z,1774.00
2023-05-08T01:23:13.180Z,1737.00
2023-05-08T01:24:13.210Z,1786.00
2023-05-08T01:25:13.218Z,1789.00
2023-05-08T01:26:13.226Z,1801.00
2023-05-08T01:27:13.257Z,1811.00
2023-05-08T01:28:13.335Z,1799.00
2023-05-08T01:29:13.360Z,1796.00
2023-05-08T01:30:13.604Z,1804.00
2023-05-08T01:31:13.480Z,1807.00
2023-05-08T01:32:13.497Z,1793.00
2023-05-08T01:33:13.637Z,1802.00
2023-05-08T01:34:13.540Z,1783.00
2023-05-08T01:35:13.571Z,1794.00
2023-05-08T01:36:13.600Z,1824.00
2023-05-08T01:37:13.628Z,1857.00
2023-05-08T01:38:13.663Z,1844.00
2023-05-08T01:39:13.690Z,1854.00
2023-05-08T01:40:13.966Z,1850.00
2023-05-08T01:41:13.735Z,1855.00
2023-05-08T01:42:13.784Z,1830.00
2023-05-08T01:43:13.827Z,1819.00
2023-05-08T01:44:13.899Z,1845.00
2023-05-08T01:45:13.953Z,1857.00
2023-05-08T01:46:13.996Z,1818.00
2023-05-08T01:47:14.057Z,1824.00
2023-05-08T01:48:14.043Z,1840.00
2023-05-08T01:49:14.061Z,1860.00
2023-05-08T01:50:14.237Z,1845.00
2023-05-08T01:51:14.115Z,1855.00
2023-05-08T01:52:14.092Z,1859.00
2023-05-08T01:53:14.113Z,1889.00
2023-05-08T01:54:14.131Z,1913.00
2023-05-08T01:55:14.167Z,1882.00
2023-05-08T01:56:14.170Z,1862.00
2023-05-08T01:57:14.172Z,1864.00
2023-05-08T01:58:14.221Z,1849.00
2023-05-08T01:59:14.270Z,1840.00
2023-05-08T02:00:14.547Z,1859.00
2023-05-08T02:01:14.355Z,1863.00
2023-05-08T02:02:14.381Z,1908.00
2023-05-08T02:03:14.416Z,1928.00
2023-05-08T02:04:14.492Z,1875.00
2023-05-08T02:05:14.491Z,1875.00
2023-05-08T02:06:14.541Z,1876.00
2023-05-08T02:07:14.586Z,1914.00
2023-05-08T02:08:14.666Z,1931.00
2023-05-08T02:09:14.641Z,1970.00
2023-05-08T02:10:14.891Z,2004.00
2023-05-08T02:11:14.690Z,1988.00
2023-05-08T02:12:14.745Z,2011.00
2023-05-08T02:13:14.852Z,2025.00
2023-05-08T02:14:14.858Z,2055.00
2023-05-08T02:15:14.933Z,2032.00
2023-05-08T02:16:15.084Z,2081.00
2023-05-08T02:17:15.002Z,2073.00
2023-05-08T02:18:15.027Z,2122.00
2023-05-08T02:19:15.028Z,2114.00
2023-05-08T02:20:15.334Z,2123.00
2023-05-08T02:21:15.064Z,2117.00
2023-05-08T02:22:15.131Z,2118.00
2023-05-08T02:23:15.165Z,2126.00
2023-05-08T02:24:15.233Z,2151.00
2023-05-08T02:25:15.278Z,2158.00
2023-05-08T02:26:15.320Z,2179.00
2023-05-08T02:27:15.374Z,2186.00
2023-05-08T02:28:15.428Z,2178.00
2023-05-08T02:29:15.472Z,2184.00
2023-05-08T02:30:15.642Z,2177.00
2023-05-08T02:31:15.576Z,2207.00
2023-05-08T02:32:15.685Z,2215.00
2023-05-08T02:33:15.648Z,2221.00
2023-05-08T02:34:15.634Z,2250.00
2023-05-08T02:35:15.680Z,2254.00
2023-05-08T02:36:15.706Z,2267.00
2023-05-08T02:37:15.736Z,2254.00
2023-05-08T02:38:15.756Z,2281.00
2023-05-08T02:39:15.758Z,2283.00
2023-05-08T02:40:15.858Z,2281.00
2023-05-08T02:41:15.830Z,2286.00
2023-05-08T02:42:15.841Z,2298.00
2023-05-08T02:43:15.841Z,2301.00
2023-05-08T02:44:15.860Z,2289.00
2023-05-08T02:45:15.897Z,2309.00
2023-05-08T02:46:15.978Z,2284.00
2023-05-08T02:47:15.972Z,2238.00
2023-05-08T02:48:16.042Z,2233.00
2023-05-08T02:49:16.101Z,2216.00
2023-05-08T02:50:16.125Z,2208.00
2023-05-08T02:51:16.155Z,2195.00
2023-05-08T02:52:16.228Z,2189.00
2023-05-08T02:53:16.251Z,2214.00
2023-05-08T02:54:16.302Z,2214.00
2023-05-08T02:55:16.385Z,2256.00
2023-05-08T02:56:16.386Z,2236.00
2023-05-08T02:57:16.402Z,2197.00
2023-05-08T02:58:16.423Z,2213.00
2023-05-08T02:59:16.478Z,2232.00
2023-05-08T03:00:16.536Z,2200.00
2023-05-08T03:01:16.634Z,2170.00
2023-05-08T03:02:16.607Z,2156.00
2023-05-08T03:03:16.702Z,2147.00
2023-05-08T03:04:16.594Z,2149.00
2023-05-08T03:05:16.623Z,2112.00
2023-05-08T03:06:16.625Z,2124.00
2023-05-08T03:07:16.648Z,2107.00
2023-05-08T03:08:16.670Z,2100.00
2023-05-08T03:09:16.727Z,2068.00
2023-05-08T03:10:16.884Z,2051.00
2023-05-08T03:11:16.819Z,2030.00
2023-05-08T03:12:16.871Z,2025.00
2023-05-08T03:13:17.031Z,2019.00
2023-05-08T03:14:16.974Z,2026.00
2023-05-08T03:15:17.053Z,2034.00
2023-05-08T03:16:17.108Z,2005.00
2023-05-08T03:17:17.152Z,2000.00
2023-05-08T03:18:17.204Z,1999.00
2023-05-08T03:19:17.248Z,2002.00
2023-05-08T03:20:17.284Z,2006.00
2023-05-08T03:21:17.278Z,1987.00
2023-05-08T03:22:17.351Z,1971.00
2023-05-08T03:23:17.320Z,1969.00
2023-05-08T03:24:17.351Z,1931.00
2023-05-08T03:25:17.407Z,1947.00
2023-05-08T03:26:17.450Z,1963.00
2023-05-08T03:27:17.516Z,1968.00
2023-05-08T03:28:17.540Z,1955.00
2023-05-08T03:29:17.598Z,1961.00
2023-05-08T03:30:17.641Z,1941.00
2023-05-08T03:31:17.747Z,1949.00
2023-05-08T03:32:17.738Z,1920.00
2023-05-08T03:33:17.800Z,1906.00
2023-05-08T03:34:17.854Z,1906.00
2023-05-08T03:35:17.910Z,1883.00
2023-05-08T03:36:17.963Z,1904.00
2023-05-08T03:37:17.992Z,1924.00
2023-05-08T03:38:18.047Z,1931.00
2023-05-08T03:39:18.100Z,1928.00
2023-05-08T03:40:18.141Z,1924.00
2023-05-08T03:41:18.195Z,1933.00
2023-05-08T03:42:18.256Z,1926.00
2023-05-08T03:43:18.254Z,1885.00
2023-05-08T03:44:18.317Z,1899.00
2023-05-08T03:45:18.348Z,1904.00
2023-05-08T03:46:18.426Z,1880.00
2023-05-08T03:47:18.469Z,1881.00
2023-05-08T03:48:18.522Z,1898.00
2023-05-08T03:49:18.556Z,1877.00
2023-05-08T03:50:18.612Z,1867.00
2023-05-08T03:51:18.626Z,1846.00
2023-05-08T03:52:18.652Z,1845.00
2023-05-08T03:53:18.711Z,1833.00
2023-05-08T03:54:18.800Z,1816.00
2023-05-08T03:55:18.751Z,1827.00
2023-05-08T03:56:18.773Z,1856.00
2023-05-08T03:57:18.802Z,1843.00
2023-05-08T03:58:18.836Z,1832.00
2023-05-08T03:59:18.869Z,1855.00
2023-05-08T04:00:18.908Z,1879.00
2023-05-08T04:01:18.931Z,1856.00
2023-05-08T04:02:19.012Z,1879.00
2023-05-08T04:03:19.149Z,1873.00
2023-05-08T04:04:19.199Z,1885.00
2023-05-08T04:05:19.072Z,1879.00
2023-05-08T04:06:19.099Z,1880.00
2023-05-08T04:07:19.132Z,1911.00
2023-05-08T04:08:19.182Z,1887.00
2023-05-08T04:09:19.237Z,1873.00
2023-05-08T04:10:19.290Z,1872.00
2023-05-08T04:11:19.326Z,1866.00
2023-05-08T04:12:19.405Z,1862.00
2023-05-08T04:13:19.477Z,1843.00
2023-05-08T04:14:19.498Z,1850.00
2023-05-08T04:15:19.506Z,1843.00
2023-05-08T04:16:19.568Z,1820.00
2023-05-08T04:17:19.659Z,1821.00
2023-05-08T04:18:19.686Z,1826.00
2023-05-08T04:19:19.689Z,1799.00
2023-05-08T04:20:19.725Z,1791.00
2023-05-08T04:21:19.784Z,1837.00
2023-05-08T04:22:19.831Z,1818.00
2023-05-08T04:23:19.846Z,1789.00
2023-05-08T04:24:19.881Z,1784.00
2023-05-08T04:25:19.879Z,1796.00
2023-05-08T04:26:19.933Z,1788.00
2023-05-08T04:27:19.914Z,1792.00
2023-05-08T04:28:19.946Z,1798.00
2023-05-08T04:29:19.970Z,1790.00
2023-05-08T04:30:19.991Z,1773.00
2023-05-08T04:31:20.073Z,1788.00
2023-05-08T04:32:20.052Z,1772.00
2023-05-08T04:33:20.118Z,1771.00
2023-05-08T04:34:20.094Z,1780.00
2023-05-08T04:35:20.132Z,1782.00
2023-05-08T04:36:20.177Z,1783.00
2023-05-08T04:37:20.209Z,1780.00
2023-05-08T04:38:20.254Z,1803.00
2023-05-08T04:39:20.284Z,1777.00
2023-05-08T04:40:20.342Z,1782.00
2023-05-08T04:41:20.433Z,1752.00
2023-05-08T04:42:20.407Z,1762.00
2023-05-08T04:43:20.478Z,1801.00
2023-05-08T04:44:20.521Z,1780.00
2023-05-08T04:45:20.554Z,1766.00
2023-05-08T04:46:20.620Z,1777.00
2023-05-08T04:47:20.692Z,1782.00
2023-05-08T04:48:20.633Z,1769.00
2023-05-08T04:49:20.702Z,1774.00
2023-05-08T04:50:20.743Z,1788.00
2023-05-08T04:51:20.765Z,1815.00
2023-05-08T04:52:20.812Z,1791.00
2023-05-08T04:53:20.860Z,1800.00
2023-05-08T04:54:20.903Z,1823.00
2023-05-08T04:55:20.939Z,1779.00
2023-05-08T04:56:20.948Z,1769.00
2023-05-08T04:57:20.975Z,1771.00
2023-05-08T04:58:21.003Z,1752.00
2023-05-08T04:59:21.028Z,1758.00
2023-05-08T05:00:21.043Z,1771.00
2023-05-08T05:01:21.121Z,1763.00
2023-05-08T05:02:21.146Z,1770.00
2023-05-08T05:03:21.186Z,1769.00
2023-05-08T05:04:21.151Z,1786.00
2023-05-08T05:05:21.179Z,1796.00
2023-05-08T05:06:21.240Z,1796.00
2023-05-08T05:07:21.271Z,1775.00
2023-05-08T05:08:21.333Z,1761.00
2023-05-08T05:09:21.306Z,1775.00
2023-05-08T05:10:21.365Z,1798.00
2023-05-08T05:11:21.397Z,1779.00
2023-05-08T05:12:21.429Z,1770.00
2023-05-08T05:13:21.518Z,1782.00
2023-05-08T05:14:21.510Z,1790.00
2023-05-08T05:15:21.525Z,1800.00
2023-05-08T05:16:21.577Z,1815.00
2023-05-08T05:17:21.610Z,1801.00
2023-05-08T05:18:21.644Z,1810.00
2023-05-08T05:19:21.715Z,1806.00
2023-05-08T05:20:21.761Z,1814.00
2023-05-08T05:21:21.772Z,1808.00
2023-05-08T05:22:21.831Z,1772.00
2023-05-08T05:23:21.814Z,1791.00
2023-05-08T05:24:21.875Z,1810.00
2023-05-08T05:25:21.888Z,1814.00
2023-05-08T05:26:21.888Z,1804.00
2023-05-08T05:27:21.939Z,1846.00
2023-05-08T05:28:21.969Z,1967.00
2023-05-08T05:29:21.992Z,1982.00
2023-05-08T05:30:22.032Z,2081.00
2023-05-08T05:31:22.112Z,2111.00
2023-05-08T05:32:22.423Z,2141.00
2023-05-08T05:33:22.105Z,2233.00
2023-05-08T05:34:22.166Z,2347.00
2023-05-08T05:35:24.106Z,2419.00
2023-05-08T05:36:22.163Z,2531.00
2023-05-08T05:37:22.172Z,2580.00
2023-05-08T05:38:22.182Z,2655.00
2023-05-08T05:39:22.166Z,2716.00
2023-05-08T05:40:22.157Z,2825.00
2023-05-08T05:41:22.149Z,2808.00
2023-05-08T05:42:22.149Z,2853.00
2023-05-08T05:43:22.184Z,2894.00
2023-05-08T05:44:22.134Z,3013.00
2023-05-08T05:45:22.153Z,3084.00
2023-05-08T05:46:22.184Z,3114.00
2023-05-08T05:47:22.137Z,3167.00
2023-05-08T05:48:22.082Z,3172.00
2023-05-08T05:49:22.076Z,3208.00
2023-05-08T05:50:22.098Z,3268.00
2023-05-08T05:51:22.073Z,3305.00
2023-05-08T05:52:22.059Z,3321.00
2023-05-08T05:53:22.058Z,3360.00
2023-05-08T05:54:22.042Z,3403.00
2023-05-08T05:55:22.064Z,3433.00
2023-05-08T05:56:22.022Z,3471.00
2023-05-08T05:57:22.012Z,3482.00
2023-05-08T05:58:22.029Z,3462.00
2023-05-08T05:59:22.002Z,3381.00
2023-05-08T06:00:22.018Z,3328.00
2023-05-08T06:01:21.992Z,3342.00
2023-05-08T06:02:22.080Z,3340.00
2023-05-08T06:03:22.197Z,3364.00
2023-05-08T06:04:22.013Z,3344.00
2023-05-08T06:05:21.983Z,3294.00
2023-05-08T06:06:21.959Z,3357.00
2023-05-08T06:07:21.935Z,3366.00
2023-05-08T06:08:21.952Z,3360.00
2023-05-08T06:09:21.961Z,3395.00
2023-05-08T06:10:21.930Z,3344.00
2023-05-08T06:11:21.935Z,3156.00
2023-05-08T06:12:21.912Z,3114.00
2023-05-08T06:13:22.022Z,3165.00
2023-05-08T06:14:21.897Z,3316.00
2023-05-08T06:15:21.889Z,3377.00
2023-05-08T06:16:21.935Z,3398.00
2023-05-08T06:17:21.928Z,3357.00
2023-05-08T06:18:21.852Z,3317.00
2023-05-08T06:19:21.864Z,3357.00
2023-05-08T06:20:21.838Z,3338.00
2023-05-08T06:21:21.856Z,3371.00
2023-05-08T06:22:21.870Z,3363.00
2023-05-08T06:23:21.832Z,3237.00
2023-05-08T06:24:21.841Z,3246.00
2023-05-08T06:25:21.836Z,3068.00
2023-05-08T06:26:23.401Z,3153.00
2023-05-08T06:27:21.816Z,3155.00
2023-05-08T06:28:21.790Z,3214.00
2023-05-08T06:29:21.824Z,3278.00
2023-05-08T06:30:21.801Z,3269.00
2023-05-08T06:31:21.866Z,3261.00
2023-05-08T06:32:21.891Z,3214.00
2023-05-08T06:33:22.493Z,3064.00
2023-05-08T06:34:21.923Z,3052.00
2023-05-08T06:35:22.423Z,2862.00
2023-05-08T06:36:22.024Z,2795.00
2023-05-08T06:37:22.080Z,2727.00
2023-05-08T06:38:22.117Z,2710.00
2023-05-08T06:39:22.168Z,2671.00
2023-05-08T06:40:22.159Z,2595.00
2023-05-08T06:41:22.180Z,2613.00
2023-05-08T06:42:22.369Z,2625.00
2023-05-08T06:43:22.254Z,2665.00
2023-05-08T06:44:22.280Z,2687.00
2023-05-08T06:45:22.327Z,2644.00
2023-05-08T06:46:22.372Z,2615.00
2023-05-08T06:47:22.449Z,2665.00
2023-05-08T06:48:22.460Z,2604.00
2023-05-08T06:49:22.495Z,2591.00
2023-05-08T06:50:22.613Z,2589.00
2023-05-08T06:51:22.631Z,2579.00
2023-05-08T06:52:22.633Z,2539.00
2023-05-08T06:53:22.658Z,2529.00
2023-05-08T06:54:22.693Z,2535.00
2023-05-08T06:55:22.933Z,2530.00
2023-05-08T06:56:22.779Z,2471.00
2023-05-08T06:57:22.820Z,2460.00
2023-05-08T06:58:22.869Z,2463.00
2023-05-08T06:59:22.882Z,2462.00
2023-05-08T07:00:22.911Z,2452.00
2023-05-08T07:01:22.960Z,2504.00
2023-05-08T07:02:23.028Z,2501.00
2023-05-08T07:03:22.991Z,2513.00
2023-05-08T07:04:23.106Z,2505.00
2023-05-08T07:05:23.068Z,2514.00
2023-05-08T07:06:23.077Z,2496.00
2023-05-08T07:07:23.158Z,2550.00
2023-05-08T07:08:23.205Z,2581.00
2023-05-08T07:09:23.254Z,2545.00
2023-05-08T07:10:23.275Z,2543.00
2023-05-08T07:11:23.372Z,2592.00
2023-05-08T07:12:23.351Z,2605.00
2023-05-08T07:13:23.468Z,2527.00
2023-05-08T07:14:23.421Z,2496.00
2023-05-08T07:15:26.579Z,2500.00
2023-05-08T07:16:23.506Z,2468.00
2023-05-08T07:17:23.477Z,2423.00
2023-05-08T07:18:23.448Z,2441.00
2023-05-08T07:19:23.444Z,2431.00
2023-05-08T07:20:23.457Z,2389.00
2023-05-08T07:21:23.440Z,2413.00
2023-05-08T07:22:23.489Z,2469.00
2023-05-08T07:23:23.424Z,2452.00
2023-05-08T07:24:23.399Z,2455.00
2023-05-08T07:25:23.407Z,2450.00
2023-05-08T07:26:23.396Z,2452.00
2023-05-08T07:27:23.374Z,2517.00
2023-05-08T07:28:23.394Z,2617.00
2023-05-08T07:29:23.375Z,2729.00
2023-05-08T07:30:23.408Z,2806.00
2023-05-08T07:31:23.385Z,2815.00
2023-05-08T07:32:23.380Z,2731.00
2023-05-08T07:33:23.343Z,2732.00
2023-05-08T07:34:23.344Z,2660.00
2023-05-08T07:35:23.334Z,2642.00
2023-05-08T07:36:23.314Z,2614.00
2023-05-08T07:37:23.315Z,2588.00
2023-05-08T07:38:23.307Z,2579.00
2023-05-08T07:39:23.297Z,2610.00
2023-05-08T07:40:23.550Z,2618.00
2023-05-08T07:41:23.345Z,2630.00
2023-05-08T07:42:23.281Z,2659.00
2023-05-08T07:43:23.476Z,2649.00
2023-05-08T07:44:23.254Z,2697.00
2023-05-08T07:45:23.242Z,2777.00
2023-05-08T07:46:23.310Z,2830.00
2023-05-08T07:47:23.221Z,2884.00
2023-05-08T07:48:23.457Z,2886.00
2023-05-08T07:49:23.221Z,2904.00
2023-05-08T07:50:23.246Z,2957.00
2023-05-08T07:51:23.207Z,2981.00
2023-05-08T07:52:23.195Z,3006.00
2023-05-08T07:53:23.229Z,3054.00
2023-05-08T07:54:23.180Z,3112.00
2023-05-08T07:55:23.185Z,3135.00
2023-05-08T07:56:23.171Z,3169.00
2023-05-08T07:57:23.161Z,3192.00
2023-05-08T07:58:24.009Z,3234.00
2023-05-08T07:59:23.132Z,3250.00
2023-05-08T08:00:23.199Z,3231.00
2023-05-08T08:01:23.206Z,3215.00
2023-05-08T08:02:23.453Z,3217.00
2023-05-08T08:03:23.311Z,3242.00
2023-05-08T08:04:23.379Z,3271.00
2023-05-08T08:05:23.497Z,3277.00
2023-05-08T08:06:23.414Z,3267.00
2023-05-08T08:07:23.460Z,3257.00
2023-05-08T08:08:23.978Z,3252.00
2023-05-08T08:09:23.522Z,3263.00
2023-05-08T08:10:23.624Z,3279.00
2023-05-08T08:11:23.637Z,3288.00
2023-05-08T08:12:23.704Z,3310.00
2023-05-08T08:13:24.095Z,3289.00
2023-05-08T08:14:23.700Z,3305.00
2023-05-08T08:15:23.741Z,3316.00
2023-05-08T08:16:23.805Z,3337.00
2023-05-08T08:17:25.022Z,3340.00
2023-05-08T08:18:23.983Z,3355.00
2023-05-08T08:19:23.862Z,3362.00
2023-05-08T08:20:23.904Z,3336.00
2023-05-08T08:21:23.938Z,3277.00
2023-05-08T08:22:24.038Z,3282.00
2023-05-08T08:23:24.036Z,3311.00
2023-05-08T08:24:24.032Z,3272.00
2023-05-08T08:25:24.509Z,3230.00
2023-05-08T08:26:24.099Z,3165.00
2023-05-08T08:27:24.172Z,3082.00
2023-05-08T08:28:24.144Z,3114.00
2023-05-08T08:29:24.270Z,3174.00
2023-05-08T08:30:24.248Z,3135.00
2023-05-08T08:31:24.402Z,3158.00
2023-05-08T08:32:24.385Z,3138.00
2023-05-08T08:33:24.420Z,3034.00
2023-05-08T08:34:24.521Z,3062.00
2023-05-08T08:35:24.497Z,3083.00
2023-05-08T08:36:24.495Z,3092.00
2023-05-08T08:37:24.516Z,3059.00
2023-05-08T08:38:24.991Z,2803.00
2023-05-08T08:39:24.598Z,2751.00
2023-05-08T08:40:24.730Z,2615.00
2023-05-08T08:41:24.664Z,2527.00
2023-05-08T08:42:24.708Z,2302.00
2023-05-08T08:43:25.126Z,2197.00
2023-05-08T08:44:24.753Z,2307.00
2023-05-08T08:45:24.790Z,2428.00
2023-05-08T08:46:24.911Z,2505.00
2023-05-08T08:47:24.859Z,2573.00
2023-05-08T08:48:24.859Z,2666.00
2023-05-08T08:49:24.893Z,2760.00
2023-05-08T08:50:25.038Z,2909.00
2023-05-08T08:51:24.946Z,2978.00
2023-05-08T08:52:24.995Z,3001.00
2023-05-08T08:53:25.059Z,3061.00
2023-05-08T08:54:25.098Z,3078.00
2023-05-08T08:55:25.137Z,3102.00
2023-05-08T08:56:25.151Z,3115.00
2023-05-08T08:57:25.194Z,3115.00
2023-05-08T08:58:25.202Z,3118.00
2023-05-08T08:59:25.242Z,3134.00
2023-05-08T09:00:25.274Z,3172.00
2023-05-08T09:01:25.384Z,3209.00
2023-05-08T09:02:25.451Z,3081.00
2023-05-08T09:03:25.468Z,3018.00
2023-05-08T09:04:25.500Z,3079.00
2023-05-08T09:05:25.506Z,3062.00
2023-05-08T09:06:25.631Z,3088.00
2023-05-08T09:07:25.587Z,3105.00
2023-05-08T09:08:25.624Z,3143.00
2023-05-08T09:09:25.649Z,3170.00
2023-05-08T09:10:25.686Z,3180.00
2023-05-08T09:11:25.694Z,3197.00
2023-05-08T09:12:25.728Z,3212.00
2023-05-08T09:13:25.803Z,3188.00
2023-05-08T09:14:25.741Z,3179.00
2023-05-08T09:15:25.804Z,3215.00
2023-05-08T09:16:25.843Z,3198.00
2023-05-08T09:17:25.838Z,3217.00
2023-05-08T09:18:25.834Z,3220.00
2023-05-08T09:19:28.159Z,3235.00
2023-05-08T09:20:25.830Z,3225.00
2023-05-08T09:21:25.834Z,3240.00
2023-05-08T09:22:25.811Z,3251.00
2023-05-08T09:23:25.819Z,3248.00
2023-05-08T09:24:25.801Z,3198.00
2023-05-08T09:25:25.817Z,3230.00
2023-05-08T09:26:25.802Z,3132.00
2023-05-08T09:27:25.802Z,3069.00
2023-05-08T09:28:26.000Z,2963.00
2023-05-08T09:29:25.779Z,2979.00
2023-05-08T09:30:25.790Z,2922.00
2023-05-08T09:31:25.771Z,2842.00
2023-05-08T09:32:25.754Z,2732.00
2023-05-08T09:33:26.045Z,2620.00
2023-05-08T09:34:25.724Z,2496.00
2023-05-08T09:35:25.737Z,2323.00
2023-05-08T09:36:25.710Z,2325.00
2023-05-08T09:37:25.743Z,2334.00
2023-05-08T09:38:26.089Z,2202.00
2023-05-08T09:39:25.731Z,1980.00
2023-05-08T09:40:25.702Z,1905.00
2023-05-08T09:41:25.818Z,1950.00
2023-05-08T09:42:25.733Z,1899.00
2023-05-08T09:43:25.670Z,1691.00
2023-05-08T09:44:25.667Z,1508.00
2023-05-08T09:45:25.750Z,1335.00
2023-05-08T09:46:25.848Z,1188.00
2023-05-08T09:47:25.709Z,1145.00
2023-05-08T09:48:25.626Z,1156.00
2023-05-08T09:49:25.616Z,1085.00
2023-05-08T09:50:25.659Z,1088.00
2023-05-08T09:51:25.616Z,1076.00
2023-05-08T09:52:25.612Z,1033.00
2023-05-08T09:53:25.618Z,1049.00
2023-05-08T09:54:25.692Z,1014.00
2023-05-08T09:55:25.597Z,931.00
2023-05-08T09:56:25.621Z,905.00
2023-05-08T09:57:25.577Z,871.00
2023-05-08T09:58:25.663Z,866.00
2023-05-08T09:59:25.558Z,984.00
2023-05-08T10:00:25.560Z,1118.00
2023-05-08T10:01:25.572Z,1227.00
2023-05-08T10:02:25.549Z,1333.00
2023-05-08T10:03:26.171Z,1449.00
2023-05-08T10:04:25.544Z,1575.00
2023-05-08T10:05:25.632Z,1716.00
2023-05-08T10:06:25.553Z,1884.00
2023-05-08T10:07:25.507Z,2016.00
2023-05-08T10:08:25.490Z,2093.00
2023-05-08T10:09:27.388Z,2190.00
2023-05-08T10:10:26.565Z,2194.00
2023-05-08T10:11:25.460Z,2219.00
2023-05-08T10:12:25.461Z,2274.00
2023-05-08T10:13:25.549Z,2380.00
2023-05-08T10:14:25.443Z,2539.00
2023-05-08T10:15:25.450Z,2608.00
2023-05-08T10:16:25.458Z,2641.00
2023-05-08T10:17:25.432Z,2666.00
2023-05-08T10:18:25.415Z,2696.00
2023-05-08T10:19:25.433Z,2694.00
2023-05-08T10:20:25.410Z,2724.00
2023-05-08T10:21:25.514Z,2751.00
2023-05-08T10:22:25.388Z,2768.00
2023-05-08T10:23:25.384Z,2781.00
2023-05-08T10:24:25.365Z,2822.00
2023-05-08T10:25:25.367Z,2864.00
2023-05-08T10:26:25.529Z,2891.00
2023-05-08T10:27:25.464Z,2907.00
2023-05-08T10:28:25.521Z,2901.00
2023-05-08T10:29:25.554Z,2894.00
2023-05-08T10:30:25.573Z,2909.00
2023-05-08T10:31:25.686Z,2906.00
2023-05-08T10:32:25.661Z,2972.00
2023-05-08T10:33:26.058Z,2995.00
2023-05-08T10:34:25.682Z,3011.00
2023-05-08T10:35:25.721Z,3032.00
2023-05-08T10:36:25.744Z,3060.00
2023-05-08T10:37:25.772Z,3078.00
2023-05-08T10:38:25.789Z,3081.00
2023-05-08T10:39:25.862Z,3045.00
2023-05-08T10:40:25.864Z,3053.00
2023-05-08T10:41:25.851Z,3080.00
2023-05-08T10:42:25.938Z,3102.00
2023-05-08T10:43:25.932Z,3126.00
2023-05-08T10:44:25.937Z,3130.00
2023-05-08T10:45:25.990Z,3108.00
2023-05-08T10:46:26.096Z,3128.00
2023-05-08T10:47:26.174Z,3141.00
2023-05-08T10:48:26.095Z,3144.00
2023-05-08T10:49:26.125Z,3149.00
2023-05-08T10:50:26.131Z,3166.00
2023-05-08T10:51:26.172Z,3039.00
2023-05-08T10:52:26.154Z,2788.00
2023-05-08T10:53:26.183Z,2491.00
2023-05-08T10:54:27.954Z,2246.00
2023-05-08T10:55:26.192Z,2074.00
2023-05-08T10:56:26.235Z,2019.00
2023-05-08T10:57:26.268Z,2019.00
2023-05-08T10:58:26.287Z,1913.00
2023-05-08T10:59:26.332Z,1983.00
2023-05-08T11:00:26.353Z,1910.00
2023-05-08T11:01:26.475Z,2092.00
2023-05-08T11:02:26.579Z,1948.00
2023-05-08T11:03:31.951Z,1787.00
2023-05-08T11:04:27.615Z,1729.00
2023-05-08T11:05:26.564Z,1649.00
2023-05-08T11:06:26.492Z,1653.00
2023-05-08T11:07:26.470Z,1603.00
2023-05-08T11:08:26.465Z,1214.00
2023-05-08T11:09:26.455Z,1327.00
2023-05-08T11:10:26.450Z,1299.00
2023-05-08T11:11:26.450Z,1139.00
2023-05-08T11:12:26.428Z,1035.00
2023-05-08T11:13:26.484Z,910.00
2023-05-08T11:14:26.405Z,893.00
2023-05-08T11:15:26.426Z,927.00
2023-05-08T11:16:26.515Z,1089.00
2023-05-08T11:17:26.570Z,1157.00
2023-05-08T11:18:32.555Z,1153.00
2023-05-08T11:19:27.524Z,1158.00
2023-05-08T11:20:26.561Z,1200.00
2023-05-08T11:21:26.556Z,1300.00
2023-05-08T11:22:26.485Z,1488.00
2023-05-08T11:23:26.468Z,1807.00
2023-05-08T11:24:26.467Z,1928.00
2023-05-08T11:25:26.464Z,1927.00
2023-05-08T11:26:26.470Z,1883.00
2023-05-08T11:27:26.460Z,1870.00
2023-05-08T11:28:26.436Z,1854.00
2023-05-08T11:29:26.425Z,1788.00
2023-05-08T11:30:26.506Z,1840.00
2023-05-08T11:31:26.506Z,1913.00
2023-05-08T11:32:26.493Z,1997.00
2023-05-08T11:33:26.543Z,2036.00
2023-05-08T11:34:26.524Z,2005.00
2023-05-08T11:35:26.575Z,1972.00
2023-05-08T11:36:26.598Z,2020.00
2023-05-08T11:37:26.630Z,2058.00
2023-05-08T11:38:26.670Z,2060.00
2023-05-08T11:39:26.664Z,2081.00
2023-05-08T11:40:26.695Z,2082.00
2023-05-08T11:41:26.739Z,2096.00
2023-05-08T11:42:26.785Z,2110.00
2023-05-08T11:43:26.818Z,2125.00
2023-05-08T11:44:26.819Z,2108.00
2023-05-08T11:45:26.874Z,2139.00
2023-05-08T11:46:26.971Z,2182.00
2023-05-08T11:47:26.935Z,2185.00
2023-05-08T11:48:26.972Z,2197.00
2023-05-08T11:49:29.555Z,2219.00
2023-05-08T11:50:26.985Z,2253.00
2023-05-08T11:51:26.975Z,2221.00
2023-05-08T11:52:26.986Z,2232.00
2023-05-08T11:53:26.967Z,2234.00
2023-05-08T11:54:26.971Z,2252.00
2023-05-08T11:55:26.949Z,2251.00
2023-05-08T11:56:26.947Z,2237.00
2023-05-08T11:57:26.948Z,2251.00
2023-05-08T11:58:26.929Z,2254.00
2023-05-08T11:59:26.916Z,2247.00
2023-05-08T12:00:26.969Z,2258.00
2023-05-08T12:01:26.912Z,2250.00
2023-05-08T12:02:26.992Z,2230.00
2023-05-08T12:03:26.966Z,2242.00
2023-05-08T12:04:26.982Z,2222.00
2023-05-08T12:05:26.889Z,2216.00
2023-05-08T12:06:26.881Z,2221.00